Time;durP1;ratioP1;P1;durP2;ratioP2;P2;SDS_P1;SDS_P2;PMS_P1;PMS_P2;Temp;Humidity;BMP_temperature;BMP_pressure;BME280_temperature;BME280_humidity;BME280_pressure;Samples;Min_cycle;Max_cycle;Signal;HPM_P1;HPM_P2
2021/06/23 00:00:37;;;;;;;30.00;21.08;;;;;;;16.71;79.02;98948.59;3560010;40;20052;-67
2021/06/23 00:03:05;;;;;;;20.40;18.20;;;;;;;16.70;79.30;98953.13;3558923;40;20392;-65
2021/06/23 00:05:33;;;;;;;24.15;19.42;;;;;;;16.74;78.99;98956.19;3557661;40;20045;-66
2021/06/23 00:08:03;;;;;;;20.70;17.33;;;;;;;16.77;78.80;98961.03;3558828;40;20050;-66
2021/06/23 00:10:31;;;;;;;22.92;19.67;;;;;;;16.80;78.76;98960.59;3559229;40;20081;-67
2021/06/23 00:13:04;;;;;;;25.33;19.85;;;;;;;16.86;78.64;98966.84;3559968;40;20487;-66
2021/06/23 00:15:33;;;;;;;26.25;20.85;;;;;;;16.87;78.71;98974.66;3567422;40;20053;-66
2021/06/23 00:18:03;;;;;;;22.65;19.83;;;;;;;16.86;78.62;98980.19;3560336;40;20434;-66
2021/06/23 00:20:31;;;;;;;20.27;18.17;;;;;;;16.86;78.68;98975.69;3560323;40;20054;-66
2021/06/23 00:22:59;;;;;;;18.73;16.27;;;;;;;16.86;78.78;98969.53;3559972;40;20052;-66
2021/06/23 00:25:29;;;;;;;22.92;19.45;;;;;;;16.90;78.78;98965.34;3559957;40;20067;-66
2021/06/23 00:27:57;;;;;;;19.83;16.95;;;;;;;16.82;78.84;98953.97;3559563;40;20356;-66
2021/06/23 00:30:25;;;;;;;22.15;17.98;;;;;;;16.82;78.52;98953.19;3560045;40;20050;-67
2021/06/23 00:32:55;;;;;;;21.42;19.23;;;;;;;16.81;78.43;98952.34;3560296;40;20049;-67
2021/06/23 00:35:23;;;;;;;17.60;14.95;;;;;;;16.83;78.73;98949.44;3560263;40;20050;-66
2021/06/23 00:37:51;;;;;;;23.33;19.95;;;;;;;16.86;78.47;98951.69;3559088;40;20054;-66
2021/06/23 00:40:19;;;;;;;24.30;20.42;;;;;;;16.84;78.75;98954.56;3567241;40;20113;-66
2021/06/23 00:42:49;;;;;;;23.13;18.98;;;;;;;16.83;78.86;98957.47;3560038;40;20049;-67
2021/06/23 00:45:18;;;;;;;23.67;19.35;;;;;;;16.88;78.61;98967.44;3559014;40;20060;-67
2021/06/23 00:47:47;;;;;;;21.63;17.15;;;;;;;16.87;78.44;98957.81;3558445;40;20210;-67
2021/06/23 00:50:18;;;;;;;27.05;20.95;;;;;;;16.89;78.29;98959.19;3567467;40;20096;-66
2021/06/23 00:53:04;;;;;;;25.27;21.25;;;;;;;16.88;77.76;98965.59;3560123;40;20048;-66
2021/06/23 00:55:35;;;;;;;22.63;17.95;;;;;;;16.79;77.89;98962.44;3559874;40;20373;-66
2021/06/23 00:58:05;;;;;;;21.42;17.73;;;;;;;16.80;78.21;98957.91;3559773;40;20086;-66
2021/06/23 01:00:35;;;;;;;26.10;19.50;;;;;;;16.83;78.40;98952.13;3567278;40;20057;-66
2021/06/23 01:03:06;;;;;;;19.38;17.30;;;;;;;16.83;78.46;98958.28;3559983;40;20322;-66
2021/06/23 01:05:36;;;;;;;26.13;19.83;;;;;;;16.84;78.42;98959.91;3558896;40;20048;-66
2021/06/23 01:08:10;;;;;;;25.13;20.05;;;;;;;16.87;78.73;98963.97;3559094;40;20045;-65
2021/06/23 01:10:39;;;;;;;26.38;21.48;;;;;;;16.86;78.15;98969.53;3559907;40;20058;-65
2021/06/23 01:13:35;;;;;;;23.23;20.63;;;;;;;16.81;78.68;98965.69;3558966;40;20140;-67
2021/06/23 01:16:07;;;;;;;28.17;24.50;;;;;;;16.77;78.40;98971.72;3552332;40;20053;-66
2021/06/23 01:18:37;;;;;;;29.48;23.77;;;;;;;16.73;78.11;98967.88;3567519;40;20159;-66
2021/06/23 01:21:07;;;;;;;29.52;22.98;;;;;;;16.72;78.36;98967.03;3567162;40;20057;-66
2021/06/23 01:23:36;;;;;;;29.20;21.58;;;;;;;16.75;79.11;98965.81;3559838;40;20469;-66
2021/06/23 01:26:05;;;;;;;27.23;22.35;;;;;;;16.81;78.59;98970.22;3559375;40;20050;-66
2021/06/23 01:28:39;;;;;;;31.13;24.50;;;;;;;16.83;78.00;98976.97;3566899;40;20073;-66
2021/06/23 01:31:11;;;;;;;27.83;22.70;;;;;;;16.80;78.15;98971.25;3567220;40;20046;-66
2021/06/23 01:33:39;;;;;;;27.65;21.88;;;;;;;16.84;78.14;98977.78;3559403;40;20131;-66
2021/06/23 01:36:08;;;;;;;30.35;24.67;;;;;;;16.85;77.95;98974.06;3558425;40;20096;-66
2021/06/23 01:38:41;;;;;;;27.85;22.17;;;;;;;16.87;78.12;98976.50;3559429;40;20300;-67
2021/06/23 01:41:09;;;;;;;31.02;24.52;;;;;;;16.90;77.63;98968.03;3559316;40;20081;-66
2021/06/23 01:43:39;;;;;;;28.00;21.98;;;;;;;16.87;77.93;98974.66;3567255;40;20374;-66
2021/06/23 01:46:08;;;;;;;28.08;22.85;;;;;;;16.89;78.33;98966.41;3558276;40;20058;-66
2021/06/23 01:48:36;;;;;;;27.52;22.73;;;;;;;16.83;77.67;98974.28;3558691;40;20069;-65
2021/06/23 01:51:05;;;;;;;28.88;22.05;;;;;;;16.76;78.08;98962.09;3566986;40;20050;-66
2021/06/23 01:53:37;;;;;;;30.40;22.57;;;;;;;16.72;78.60;98963.56;3559495;40;20056;-66
2021/06/23 01:56:07;;;;;;;27.48;21.58;;;;;;;16.69;78.59;98962.13;3559247;40;20057;-66
2021/06/23 01:58:39;;;;;;;26.80;22.55;;;;;;;16.62;78.76;98966.78;3558389;40;20058;-66
2021/06/23 02:01:25;;;;;;;30.15;23.27;;;;;;;16.63;78.89;98970.25;3566522;40;20505;-65
2021/06/23 02:04:10;;;;;;;27.02;21.08;;;;;;;16.65;78.94;98968.16;3558598;40;20282;-67
2021/06/23 02:07:08;;;;;;;23.17;18.60;;;;;;;16.67;78.99;98960.75;3557982;40;20078;-68
2021/06/23 02:09:50;;;;;;;26.63;20.85;;;;;;;16.71;78.86;98973.41;3566435;40;20050;-67
2021/06/23 02:12:44;;;;;;;23.25;19.55;;;;;;;16.71;78.62;98980.63;3557957;40;20085;-68
2021/06/23 02:15:13;;;;;;;28.48;21.05;;;;;;;16.71;78.50;98983.28;3557907;40;20049;-68
2021/06/23 02:17:50;;;;;;;27.33;20.42;;;;;;;16.72;78.61;98979.56;3558242;40;20037;-68
2021/06/23 02:20:33;;;;;;;25.73;20.95;;;;;;;16.70;78.81;98984.34;3567227;40;20046;-67
2021/06/23 02:23:13;;;;;;;26.30;20.30;;;;;;;16.67;78.75;98977.59;3558551;40;20046;-68
2021/06/23 02:25:43;;;;;;;22.30;19.00;;;;;;;16.72;79.11;98990.25;3566806;40;20050;-68
2021/06/23 02:28:22;;;;;;;30.27;20.52;;;;;;;16.77;78.78;98983.19;3560652;40;20057;-67
2021/06/23 02:30:50;;;;;;;27.48;20.55;;;;;;;16.78;78.24;98995.53;3559800;40;20077;-68
2021/06/23 02:33:21;;;;;;;23.83;20.60;;;;;;;16.79;78.30;98994.47;3557887;40;20090;-68
2021/06/23 02:35:57;;;;;;;23.35;20.75;;;;;;;16.80;78.18;98987.28;3567332;40;20356;-67
2021/06/23 02:38:34;;;;;;;22.85;18.80;;;;;;;16.70;77.80;98990.47;3558627;40;20046;-67
2021/06/23 02:41:03;;;;;;;25.48;20.30;;;;;;;16.68;78.47;98987.22;3560661;40;20049;-68
2021/06/23 02:43:35;;;;;;;22.33;16.88;;;;;;;16.72;78.48;98988.38;3559057;40;20409;-67
2021/06/23 02:46:14;;;;;;;22.80;18.75;;;;;;;16.76;78.48;98984.25;3558377;40;20391;-67
2021/06/23 02:48:43;;;;;;;23.05;17.67;;;;;;;16.75;78.26;98971.94;3566529;40;20061;-68
2021/06/23 02:51:20;;;;;;;26.40;18.80;;;;;;;16.68;78.53;98973.88;3559618;40;20081;-68
2021/06/23 02:53:54;;;;;;;25.52;20.85;;;;;;;16.70;78.50;98977.13;3566702;40;20046;-67
2021/06/23 02:56:25;;;;;;;24.13;17.77;;;;;;;16.67;78.51;98974.91;3558966;40;20046;-67
2021/06/23 02:58:56;;;;;;;23.65;18.90;;;;;;;16.66;78.23;98972.47;3566201;40;20053;-68
2021/06/23 03:01:24;;;;;;;32.45;20.58;;;;;;;16.66;78.32;98975.97;3558401;40;20050;-67
2021/06/23 03:03:55;;;;;;;23.00;19.40;;;;;;;16.71;78.17;98972.59;3558489;40;20070;-67
2021/06/23 03:06:30;;;;;;;24.80;19.83;;;;;;;16.59;78.55;98985.91;3558151;40;20147;-67
2021/06/23 03:09:02;;;;;;;27.08;18.90;;;;;;;16.63;78.41;98987.09;3558367;40;20049;-67
2021/06/23 03:11:52;;;;;;;23.50;18.67;;;;;;;16.58;77.92;98986.97;3558608;40;20050;-67
2021/06/23 03:14:37;;;;;;;23.67;18.58;;;;;;;16.53;78.08;99001.00;3565930;40;20041;-67
2021/06/23 03:17:05;;;;;;;22.33;17.85;;;;;;;16.54;78.82;98999.94;3565772;40;20049;-68
2021/06/23 03:19:34;;;;;;;21.27;18.33;;;;;;;16.57;78.18;99014.66;3557914;40;20056;-67
2021/06/23 03:22:04;;;;;;;24.50;18.15;;;;;;;16.52;78.15;99010.00;3557774;40;20058;-68
2021/06/23 03:24:33;;;;;;;25.75;17.13;;;;;;;16.50;78.29;99012.09;3558897;40;20078;-68
2021/06/23 03:27:05;;;;;;;20.10;16.65;;;;;;;16.52;78.35;99012.69;3557763;40;20399;-67
2021/06/23 03:29:35;;;;;;;24.75;18.65;;;;;;;16.60;78.34;99020.38;3557468;40;20359;-67
2021/06/23 03:32:09;;;;;;;26.13;19.92;;;;;;;16.62;78.14;99008.69;3559025;40;20136;-68
2021/06/23 03:34:39;;;;;;;25.92;21.55;;;;;;;16.65;78.13;99010.88;3557516;40;20046;-67
2021/06/23 03:37:09;;;;;;;24.08;18.40;;;;;;;16.60;77.72;99009.69;3565794;40;20058;-67
2021/06/23 03:39:43;;;;;;;29.38;20.08;;;;;;;16.59;78.00;99012.59;3565972;40;20053;-68
2021/06/23 03:42:11;;;;;;;25.13;19.73;;;;;;;16.54;77.69;99007.94;3558616;40;20057;-68
2021/06/23 03:44:40;;;;;;;24.80;19.45;;;;;;;16.52;77.95;99014.53;3558499;40;20073;-67
2021/06/23 03:47:14;;;;;;;23.75;19.77;;;;;;;16.54;78.74;99018.63;3567271;40;20049;-68
2021/06/23 03:49:43;;;;;;;24.85;19.30;;;;;;;16.57;77.95;99018.19;3559027;40;20049;-67
2021/06/23 03:52:12;;;;;;;23.95;17.40;;;;;;;16.60;77.68;99017.69;3561634;40;20057;-67
2021/06/23 03:54:40;;;;;;;21.38;17.38;;;;;;;16.54;77.99;99028.47;3568047;40;20034;-67
2021/06/23 03:57:08;;;;;;;21.88;15.02;;;;;;;16.54;78.15;99031.16;3558911;40;20054;-67
2021/06/23 03:59:37;;;;;;;22.30;18.02;;;;;;;16.63;77.93;99034.31;3558958;40;20061;-68
2021/06/23 04:02:06;;;;;;;22.88;18.80;;;;;;;16.59;77.73;99025.94;3560363;40;20041;-67
2021/06/23 04:04:35;;;;;;;21.48;18.77;;;;;;;16.57;77.49;99031.53;3560472;40;20082;-67
2021/06/23 04:07:15;;;;;;;21.35;18.90;;;;;;;16.55;78.29;99030.91;3549047;40;20429;-67
2021/06/23 04:09:43;;;;;;;21.67;17.77;;;;;;;16.59;78.10;99032.09;3549652;40;20087;-67
2021/06/23 04:12:20;;;;;;;22.20;18.20;;;;;;;16.62;78.11;99032.69;3549391;40;20058;-66
2021/06/23 04:14:50;;;;;;;23.92;17.95;;;;;;;16.64;78.03;99027.94;3560179;40;20285;-66
2021/06/23 04:17:18;;;;;;;17.67;15.65;;;;;;;16.64;77.76;99030.59;3551329;40;20101;-66
2021/06/23 04:19:48;;;;;;;25.17;17.95;;;;;;;16.67;77.07;99028.28;3550231;40;20046;-66
2021/06/23 04:22:25;;;;;;;22.40;17.73;;;;;;;16.61;77.30;99029.19;3550569;40;20422;-67
2021/06/23 04:24:59;;;;;;;22.45;18.00;;;;;;;16.56;77.44;99035.22;3550789;40;20490;-67
2021/06/23 04:27:27;;;;;;;23.27;16.30;;;;;;;16.56;77.77;99037.88;3551045;40;20062;-66
2021/06/23 04:29:56;;;;;;;21.38;17.35;;;;;;;16.58;77.47;99035.81;3551373;40;20050;-67
2021/06/23 04:32:24;;;;;;;19.10;15.75;;;;;;;16.52;77.37;99036.69;3551335;40;20046;-65
2021/06/23 04:35:06;;;;;;;14.85;12.90;;;;;;;16.50;77.66;99040.66;3550252;40;20049;-66
2021/06/23 04:37:36;;;;;;;17.70;15.80;;;;;;;16.60;77.72;99035.56;3550951;40;20058;-65
2021/06/23 04:40:08;;;;;;;20.48;15.55;;;;;;;16.54;76.89;99039.97;3551563;40;20073;-65
2021/06/23 04:42:38;;;;;;;18.10;15.15;;;;;;;16.57;77.14;99036.03;3551132;40;20104;-66
2021/06/23 04:45:12;;;;;;;18.55;15.35;;;;;;;16.57;77.05;99034.19;3552029;40;20061;-66
2021/06/23 04:47:50;;;;;;;19.67;16.50;;;;;;;16.57;76.80;99028.00;3550537;40;20054;-65
2021/06/23 04:50:19;;;;;;;17.63;14.30;;;;;;;16.55;76.71;99032.78;3550923;40;20049;-66
2021/06/23 04:53:04;;;;;;;19.23;13.65;;;;;;;16.57;77.27;99038.69;3549520;40;20056;-66
2021/06/23 04:55:33;;;;;;;21.85;15.77;;;;;;;16.64;76.65;99044.75;3550612;40;20050;-66
2021/06/23 04:58:06;;;;;;;20.45;16.58;;;;;;;16.62;77.09;99049.53;3550040;40;20050;-67
2021/06/23 05:00:34;;;;;;;18.25;15.75;;;;;;;16.61;76.74;99037.19;3550128;40;20050;-67
2021/06/23 05:03:06;;;;;;;19.50;16.45;;;;;;;16.60;76.96;99033.72;3549046;40;20089;-67
2021/06/23 05:05:35;;;;;;;18.50;16.25;;;;;;;16.63;76.89;99031.66;3550818;40;20078;-67
2021/06/23 05:08:03;;;;;;;21.17;15.93;;;;;;;16.65;76.26;99035.69;3549651;40;20050;-67
2021/06/23 05:10:31;;;;;;;22.95;16.45;;;;;;;16.66;76.27;99037.34;3549799;40;20332;-67
2021/06/23 05:12:59;;;;;;;18.75;16.73;;;;;;;16.65;76.54;99037.56;3549703;40;20152;-68
2021/06/23 05:15:27;;;;;;;22.35;17.67;;;;;;;16.62;76.65;99038.03;3549488;40;20038;-67
2021/06/23 05:17:55;;;;;;;21.13;17.85;;;;;;;16.62;76.11;99035.38;3549174;40;20047;-71
2021/06/23 05:20:26;;;;;;;24.23;16.65;;;;;;;16.58;76.44;99046.47;3549711;40;20109;-67
2021/06/23 05:22:56;;;;;;;20.27;15.75;;;;;;;16.68;75.94;99050.47;3550051;40;20099;-66
2021/06/23 05:25:25;;;;;;;21.52;16.45;;;;;;;16.92;75.75;99046.06;3549907;40;20053;-67
2021/06/23 05:27:52;;;;;;;19.50;16.23;;;;;;;17.12;75.11;99043.09;3548308;40;20388;-67
2021/06/23 05:30:21;;;;;;;17.48;14.13;;;;;;;17.40;74.72;99043.25;3549638;40;20042;-67
2021/06/23 05:32:50;;;;;;;15.77;14.15;;;;;;;17.69;73.68;99043.38;3549545;40;20066;-67
2021/06/23 05:35:19;;;;;;;17.65;15.35;;;;;;;17.86;72.21;99051.53;3548703;40;20050;-66
2021/06/23 05:37:47;;;;;;;19.48;15.57;;;;;;;17.94;72.28;99043.16;3549902;40;20071;-67
2021/06/23 05:40:16;;;;;;;17.73;13.40;;;;;;;17.87;71.89;99043.28;3549861;40;20058;-67
2021/06/23 05:42:44;;;;;;;17.67;13.15;;;;;;;17.96;72.99;99052.59;3549890;40;20046;-67
2021/06/23 05:45:13;;;;;;;15.25;12.10;;;;;;;18.06;72.27;99050.13;3549190;40;20502;-67
2021/06/23 05:47:41;;;;;;;17.60;14.05;;;;;;;18.19;72.06;99051.72;3549387;40;20053;-67
2021/06/23 05:50:09;;;;;;;17.83;14.02;;;;;;;18.14;71.29;99053.50;3549359;40;20050;-66
2021/06/23 05:52:37;;;;;;;15.73;13.63;;;;;;;18.18;71.64;99052.78;3549372;40;20090;-67
2021/06/23 05:55:06;;;;;;;17.42;15.60;;;;;;;18.09;71.23;99056.88;3549278;40;20046;-67
2021/06/23 05:57:35;;;;;;;15.25;12.57;;;;;;;18.05;71.83;99056.53;3549056;40;20046;-66
2021/06/23 06:00:05;;;;;;;15.90;13.63;;;;;;;17.96;71.95;99062.44;3549457;40;20336;-67
2021/06/23 06:02:40;;;;;;;16.05;12.98;;;;;;;18.04;72.28;99062.94;3549728;40;20149;-66
2021/06/23 06:05:08;;;;;;;17.83;13.70;;;;;;;18.16;71.72;99068.25;3549174;40;20054;-67
2021/06/23 06:07:36;;;;;;;13.70;12.30;;;;;;;17.92;72.27;99082.69;3548944;40;20494;-68
2021/06/23 06:10:04;;;;;;;12.85;11.15;;;;;;;17.72;72.47;99077.69;3548341;40;20065;-66
2021/06/23 06:12:32;;;;;;;16.70;11.27;;;;;;;17.62;72.40;99074.75;3548601;40;20076;-67
2021/06/23 06:15:02;;;;;;;14.98;11.13;;;;;;;17.52;72.66;99078.00;3549318;40;20062;-66
2021/06/23 06:17:30;;;;;;;12.65;10.93;;;;;;;17.66;73.32;99079.41;3549830;40;20185;-66
2021/06/23 06:19:58;;;;;;;13.88;10.90;;;;;;;17.75;72.92;99075.38;3549379;40;20360;-67
2021/06/23 06:22:27;;;;;;;13.25;11.63;;;;;;;17.88;72.27;99081.53;3549296;40;20050;-67
2021/06/23 06:24:55;;;;;;;12.68;10.27;;;;;;;17.83;72.26;99076.88;3549487;40;20052;-64
2021/06/23 06:27:23;;;;;;;16.50;12.23;;;;;;;17.96;71.79;99090.03;3549297;40;20367;-67
2021/06/23 06:29:51;;;;;;;14.90;11.32;;;;;;;18.10;71.97;99082.56;3549605;40;20049;-67
2021/06/23 06:32:20;;;;;;;18.10;12.60;;;;;;;18.08;71.09;99081.97;3549139;40;20057;-66
2021/06/23 06:34:48;;;;;;;12.88;11.55;;;;;;;18.07;71.21;99091.88;3548104;40;20049;-66
2021/06/23 06:37:16;;;;;;;10.82;9.20;;;;;;;18.17;70.52;99093.16;3549006;40;20046;-67
2021/06/23 06:39:43;;;;;;;11.95;9.85;;;;;;;18.30;70.27;99087.56;3549178;40;20033;-66
2021/06/23 06:42:11;;;;;;;10.70;9.20;;;;;;;18.46;69.45;99094.03;3549087;40;20057;-65
2021/06/23 06:44:39;;;;;;;13.05;10.55;;;;;;;18.44;69.47;99099.59;3549979;40;20042;-66
2021/06/23 06:47:07;;;;;;;10.85;9.32;;;;;;;18.25;69.65;99098.97;3550417;40;20046;-66
2021/06/23 06:49:36;;;;;;;11.27;8.98;;;;;;;18.36;70.24;99096.47;3549060;40;20050;-66
2021/06/23 06:52:04;;;;;;;10.68;8.93;;;;;;;18.29;69.38;99093.97;3549065;40;20065;-67
2021/06/23 06:54:32;;;;;;;9.68;8.43;;;;;;;18.50;69.43;99093.31;3548225;40;20408;-66
2021/06/23 06:57:00;;;;;;;10.48;9.48;;;;;;;18.67;68.98;99092.56;3548933;40;20055;-67
2021/06/23 06:59:29;;;;;;;11.60;10.40;;;;;;;18.73;68.71;99097.81;3549062;40;20046;-67
2021/06/23 07:01:57;;;;;;;13.85;9.55;;;;;;;18.74;68.40;99098.66;3549048;40;20133;-68
2021/06/23 07:04:25;;;;;;;11.82;10.63;;;;;;;18.75;68.16;99103.75;3548971;40;20419;-66
2021/06/23 07:06:55;;;;;;;15.88;12.15;;;;;;;18.79;68.77;99101.41;3548768;40;20050;-67
2021/06/23 07:09:23;;;;;;;12.65;11.00;;;;;;;18.74;68.12;99095.97;3556585;40;20345;-66
2021/06/23 07:11:51;;;;;;;14.95;13.10;;;;;;;18.68;68.62;99094.19;3548109;40;20428;-67
2021/06/23 07:14:20;;;;;;;12.07;10.65;;;;;;;18.74;68.60;99091.41;3548974;40;20049;-67
2021/06/23 07:16:48;;;;;;;12.35;10.65;;;;;;;18.88;68.53;99097.28;3548747;40;20337;-67
2021/06/23 07:19:16;;;;;;;14.07;11.20;;;;;;;19.00;67.92;99092.69;3548774;40;20058;-66
2021/06/23 07:21:45;;;;;;;11.77;10.50;;;;;;;19.06;67.75;99098.94;3548736;40;20054;-67
2021/06/23 07:24:18;;;;;;;10.07;9.07;;;;;;;19.09;67.91;99105.72;3548765;40;20075;-67
2021/06/23 07:26:47;;;;;;;11.23;8.10;;;;;;;19.22;68.37;99121.47;3548533;40;20097;-66
2021/06/23 07:29:15;;;;;;;9.70;8.70;;;;;;;19.22;67.72;99122.28;3549033;40;20049;-67
2021/06/23 07:31:51;;;;;;;9.18;8.27;;;;;;;18.99;67.49;99123.22;3548605;40;20046;-67
2021/06/23 07:34:35;;;;;;;11.02;8.57;;;;;;;18.99;67.66;99125.09;3548727;40;20042;-67
2021/06/23 07:37:05;;;;;;;8.70;7.90;;;;;;;18.93;69.00;99126.03;3547538;40;20061;-67
2021/06/23 07:39:35;;;;;;;10.98;9.70;;;;;;;19.08;68.93;99136.25;3548734;40;20054;-67
2021/06/23 07:42:05;;;;;;;8.18;7.47;;;;;;;18.80;68.65;99132.50;3549301;40;20489;-67
2021/06/23 07:44:35;;;;;;;10.65;8.32;;;;;;;18.67;68.98;99130.88;3548813;40;20055;-67
2021/06/23 07:47:06;;;;;;;10.65;7.40;;;;;;;18.73;69.34;99123.78;3548631;40;20136;-68
2021/06/23 07:49:37;;;;;;;18.17;7.55;;;;;;;18.96;69.32;99128.25;3548928;40;20061;-68
2021/06/23 07:52:08;;;;;;;10.43;8.38;;;;;;;19.15;68.21;99126.19;3547947;40;20058;-66
2021/06/23 07:54:49;;;;;;;8.07;7.00;;;;;;;19.24;68.35;99135.47;3548450;40;20412;-67
2021/06/23 08:08:29;;;;;;;10.93;7.82;;;;;;;19.90;66.47;99122.38;3548564;40;20057;-60
2021/06/23 08:11:01;;;;;;;10.05;8.23;;;;;;;20.05;66.17;99127.97;3548894;40;20169;-59
2021/06/23 08:13:28;;;;;;;8.52;6.68;;;;;;;20.18;66.05;99126.81;3549672;40;20065;-59
2021/06/23 08:15:56;;;;;;;9.95;6.35;;;;;;;20.34;65.64;99135.88;3548183;40;20054;-60
2021/06/23 08:18:26;;;;;;;7.85;6.75;;;;;;;20.46;64.79;99126.66;3548243;40;20058;-61
2021/06/23 08:20:54;;;;;;;9.55;7.88;;;;;;;20.56;64.07;99122.50;3548912;40;20050;-60
2021/06/23 08:23:21;;;;;;;8.88;7.97;;;;;;;20.60;63.92;99120.94;3549752;40;20046;-61
2021/06/23 08:25:49;;;;;;;8.98;6.50;;;;;;;20.74;63.86;99117.63;3551778;40;20054;-59
2021/06/23 08:28:18;;;;;;;7.90;7.18;;;;;;;20.80;63.33;99114.97;3550123;40;20049;-59
2021/06/23 08:30:46;;;;;;;7.95;7.18;;;;;;;20.67;63.30;99110.81;3548189;40;20053;-58
2021/06/23 08:33:14;;;;;;;15.20;7.25;;;;;;;20.59;63.71;99106.69;3549319;40;20050;-59
2021/06/23 08:35:42;;;;;;;8.45;7.65;;;;;;;20.77;63.39;99113.59;3548722;40;20078;-59
2021/06/23 08:38:10;;;;;;;11.13;6.90;;;;;;;20.97;62.89;99113.03;3549419;40;20449;-59
2021/06/23 08:40:38;;;;;;;8.50;6.55;;;;;;;21.14;62.91;99104.84;3549774;40;20050;-59
2021/06/23 08:43:06;;;;;;;8.27;7.45;;;;;;;21.34;61.00;99110.44;3549554;40;20050;-58
2021/06/23 08:45:35;;;;;;;8.07;6.60;;;;;;;21.37;61.50;99111.81;3549417;40;20045;-59
2021/06/23 08:48:04;;;;;;;7.90;6.68;;;;;;;21.49;61.78;99110.59;3549349;40;20132;-59
2021/06/23 08:50:33;;;;;;;13.13;5.97;;;;;;;21.54;61.44;99114.38;3549687;40;20098;-59
2021/06/23 08:53:01;;;;;;;7.60;6.03;;;;;;;21.66;61.22;99107.75;3549400;40;20053;-60
2021/06/23 08:55:29;;;;;;;5.72;5.15;;;;;;;21.70;60.99;99116.94;3549388;40;20065;-59
2021/06/23 08:57:59;;;;;;;8.18;6.05;;;;;;;21.82;60.93;99118.66;3549195;40;20054;-59
2021/06/23 09:00:27;;;;;;;6.60;5.90;;;;;;;21.89;60.52;99114.66;3549510;40;20050;-59
2021/06/23 09:03:01;;;;;;;7.78;6.30;;;;;;;21.81;60.41;99109.75;3548785;40;20054;-59
2021/06/23 09:05:48;;;;;;;6.72;5.90;;;;;;;21.87;60.56;99095.25;3549508;40;20042;-60
2021/06/23 09:08:30;;;;;;;8.60;6.15;;;;;;;21.87;60.22;99097.16;3548686;40;20053;-58
2021/06/23 09:10:59;;;;;;;8.48;6.28;;;;;;;21.92;59.89;99095.31;3549702;40;20053;-59
2021/06/23 09:13:27;;;;;;;9.15;6.93;;;;;;;21.93;59.94;99096.94;3549908;40;20327;-59
2021/06/23 09:15:57;;;;;;;10.55;5.93;;;;;;;22.00;59.87;99094.00;3549244;40;20069;-59
2021/06/23 09:18:29;;;;;;;7.43;5.72;;;;;;;22.12;59.60;99096.50;3549305;40;20050;-59
2021/06/23 09:20:59;;;;;;;9.02;5.88;;;;;;;22.20;59.09;99096.84;3549360;40;20053;-59
2021/06/23 09:23:44;;;;;;;10.13;7.10;;;;;;;22.29;58.69;99097.16;3549392;40;20054;-60
2021/06/23 09:26:15;;;;;;;5.97;5.30;;;;;;;22.21;58.81;99089.59;3549174;40;20050;-59
2021/06/23 09:28:44;;;;;;;7.57;5.95;;;;;;;22.24;58.30;99091.75;3549266;40;20073;-59
2021/06/23 09:31:12;;;;;;;7.85;4.95;;;;;;;22.27;58.66;99087.72;3549617;40;20042;-59
2021/06/23 09:33:41;;;;;;;6.18;5.50;;;;;;;22.21;58.28;99082.31;3549325;40;20046;-59
2021/06/23 09:36:12;;;;;;;7.80;6.18;;;;;;;22.09;58.59;99089.75;3547953;40;20050;-59
2021/06/23 09:39:01;;;;;;;7.32;6.32;;;;;;;21.95;58.83;99089.41;3548198;40;20046;-60
2021/06/23 09:41:32;;;;;;;7.90;6.22;;;;;;;21.92;58.92;99083.72;3549309;40;20400;-59
2021/06/23 09:44:03;;;;;;;6.30;5.65;;;;;;;22.12;58.72;99077.63;3550057;40;20077;-60
2021/06/23 09:46:33;;;;;;;6.95;5.55;;;;;;;22.20;58.46;99080.69;3551361;40;20050;-60
2021/06/23 09:49:08;;;;;;;7.47;5.28;;;;;;;22.46;58.27;99083.50;3550864;40;20050;-59
2021/06/23 09:51:41;;;;;;;5.95;5.20;;;;;;;22.56;58.11;99082.72;3549461;40;20050;-60
2021/06/23 09:54:10;;;;;;;7.47;6.38;;;;;;;22.60;57.62;99083.81;3549870;40;20062;-60
2021/06/23 09:56:56;;;;;;;5.47;4.97;;;;;;;22.72;57.37;99084.41;3549064;40;20212;-59
2021/06/23 09:59:32;;;;;;;7.25;5.50;;;;;;;22.96;55.88;99082.06;3549174;40;20049;-59
2021/06/23 10:02:00;;;;;;;5.53;4.78;;;;;;;22.93;55.84;99080.69;3551874;40;20296;-59
2021/06/23 10:04:33;;;;;;;9.60;8.60;;;;;;;23.05;55.21;99077.75;3551757;40;20038;-59
2021/06/23 10:07:02;;;;;;;7.13;5.03;;;;;;;23.11;55.16;99078.59;3551566;40;20058;-59
2021/06/23 10:09:31;;;;;;;6.82;5.13;;;;;;;23.11;55.50;99081.28;3549776;40;20050;-59
2021/06/23 10:12:01;;;;;;;5.53;4.95;;;;;;;22.91;55.50;99073.97;3549286;40;20054;-61
2021/06/23 10:14:32;;;;;;;5.57;4.90;;;;;;;22.89;55.63;99076.88;3549422;40;20375;-59
2021/06/23 10:17:01;;;;;;;6.35;5.57;;;;;;;23.02;55.79;99070.19;3548991;40;20078;-59
2021/06/23 10:19:30;;;;;;;5.28;4.70;;;;;;;23.13;55.40;99065.63;3549167;40;20383;-59
2021/06/23 10:22:02;;;;;;;7.57;4.65;;;;;;;23.17;54.34;99056.75;3548425;40;20061;-59
2021/06/23 10:24:51;;;;;;;5.20;4.70;;;;;;;23.14;53.95;99059.97;3548214;40;20038;-59
2021/06/23 10:27:21;;;;;;;5.75;5.15;;;;;;;23.27;54.34;99060.50;3548709;40;20054;-59
2021/06/23 10:29:53;;;;;;;4.70;4.30;;;;;;;23.34;54.58;99051.06;3548953;40;20046;-60
2021/06/23 10:32:21;;;;;;;5.32;4.88;;;;;;;23.44;54.90;99055.69;3549483;40;20094;-60
2021/06/23 10:34:49;;;;;;;5.35;3.95;;;;;;;23.69;53.81;99047.59;3549235;40;20360;-60
2021/06/23 10:37:20;;;;;;;5.53;5.03;;;;;;;23.83;52.80;99055.91;3547531;40;20065;-60
2021/06/23 10:39:51;;;;;;;5.35;4.50;;;;;;;23.58;53.23;99042.44;3548953;40;20050;-60
2021/06/23 10:42:23;;;;;;;5.93;4.00;;;;;;;23.64;53.50;99046.75;3548248;40;20057;-60
2021/06/23 10:44:54;;;;;;;6.22;4.30;;;;;;;23.78;52.31;99037.03;3549340;40;20054;-60
2021/06/23 10:47:30;;;;;;;4.00;3.60;;;;;;;23.80;51.90;99040.28;3549204;40;20343;-60
2021/06/23 10:49:58;;;;;;;6.68;3.97;;;;;;;23.89;50.79;99035.13;3549416;40;20077;-60
2021/06/23 10:52:36;;;;;;;4.70;3.88;;;;;;;23.86;51.95;99025.69;3550424;40;20042;-60
2021/06/23 10:55:30;;;;;;;5.38;3.85;;;;;;;23.95;51.54;99025.91;3549732;40;20053;-60
2021/06/23 10:58:05;;;;;;;4.35;3.83;;;;;;;23.98;50.56;99022.69;3549928;40;20046;-61
2021/06/23 11:00:34;;;;;;;4.30;3.90;;;;;;;23.88;51.33;99025.38;3549464;40;20062;-60
2021/06/23 11:03:07;;;;;;;4.35;3.75;;;;;;;23.66;52.00;99020.31;3549005;40;20185;-60
2021/06/23 11:05:37;;;;;;;4.53;3.70;;;;;;;23.70;52.42;99024.91;3549256;40;20128;-60
2021/06/23 11:08:34;;;;;;;5.65;3.92;;;;;;;23.77;52.41;99024.63;3549258;40;20408;-60
2021/06/23 11:11:05;;;;;;;7.40;5.75;;;;;;;23.67;52.88;99022.75;3542279;40;20046;-60
2021/06/23 11:13:34;;;;;;;4.88;3.60;;;;;;;23.66;52.42;99023.03;3548737;40;20053;-59
2021/06/23 11:16:03;;;;;;;3.78;3.47;;;;;;;23.56;52.29;99025.72;3548596;40;20038;-60
2021/06/23 11:18:34;;;;;;;6.60;4.45;;;;;;;23.62;52.47;99028.13;3549152;40;20400;-59
2021/06/23 11:21:13;;;;;;;9.13;7.13;;;;;;;23.70;52.47;99026.78;3548793;40;20109;-61
2021/06/23 11:23:45;;;;;;;7.25;6.55;;;;;;;23.83;52.36;99037.00;3548034;40;20050;-60
2021/06/23 11:26:54;;;;;;;5.25;4.00;;;;;;;24.09;51.25;99034.25;3548515;40;20046;-60
2021/06/23 11:29:33;;;;;;;4.65;3.38;;;;;;;24.11;51.08;99032.88;3548727;40;20106;-59
2021/06/23 11:32:06;;;;;;;5.88;5.32;;;;;;;24.06;51.06;99032.09;3548428;40;20054;-59
2021/06/23 11:34:43;;;;;;;;;;;;;;;24.07;50.83;99034.53;3547880;40;20042;-59
2021/06/23 11:37:13;;;;;;;6.25;3.30;;;;;;;24.07;49.05;99034.53;3548216;40;20279;-58
2021/06/23 11:39:43;;;;;;;4.13;3.17;;;;;;;24.03;48.16;99044.25;3548390;40;20046;-58
2021/06/23 11:42:12;;;;;;;2.88;2.67;;;;;;;23.98;48.46;99038.88;3549197;40;20550;-60
2021/06/23 11:44:41;;;;;;;2.72;2.53;;;;;;;23.96;48.48;99049.13;3548815;40;20388;-60
2021/06/23 11:47:09;;;;;;;2.80;2.60;;;;;;;24.00;48.85;99046.69;3548283;40;20057;-58
2021/06/23 11:49:38;;;;;;;4.15;3.20;;;;;;;23.96;49.12;99041.03;3548665;40;20050;-59
2021/06/23 11:52:07;;;;;;;9.85;8.90;;;;;;;24.14;48.66;99039.66;3548375;40;20058;-57
2021/06/23 11:54:38;;;;;;;4.18;3.88;;;;;;;24.31;48.50;99042.81;3548353;40;20049;-59